createdAt,value
2022-08-05T00:04:21.276Z,26.51
2022-08-05T00:09:27.365Z,25.09
2022-08-05T00:14:35.311Z,26.19
2022-08-05T00:19:45.702Z,25.01
2022-08-05T00:25:02.319Z,25.98
2022-08-05T00:30:12.518Z,24.17
2022-08-05T00:35:16.200Z,25.29
2022-08-05T00:40:29.025Z,25.23
2022-08-05T00:45:43.115Z,23.89
2022-08-05T00:50:49.375Z,25.10
2022-08-05T00:55:56.408Z,25.69
2022-08-05T01:01:00.277Z,25.49
2022-08-05T01:06:14.019Z,24.82
2022-08-05T01:11:24.314Z,25.42
2022-08-05T01:16:46.362Z,24.85
2022-08-05T01:22:18.898Z,24.97
2022-08-05T01:27:59.017Z,24.73
2022-08-05T01:33:08.275Z,24.75
2022-08-05T01:38:14.588Z,25.28
2022-08-05T01:43:31.410Z,24.86
2022-08-05T01:48:37.159Z,24.54
2022-08-05T01:53:57.391Z,24.34
2022-08-05T01:59:04.483Z,24.76
2022-08-05T02:04:10.563Z,25.54
2022-08-05T02:09:14.756Z,25.62
2022-08-05T02:14:22.577Z,25.81
2022-08-05T02:19:34.176Z,25.32
2022-08-05T02:24:40.659Z,25.74
2022-08-05T02:29:59.474Z,24.94
2022-08-05T02:35:13.674Z,25.03
2022-08-05T02:40:18.603Z,25.54
2022-08-05T02:45:23.903Z,25.77
2022-08-05T02:50:30.259Z,25.81
2022-08-05T02:55:59.500Z,25.68
2022-08-05T03:00:57.979Z,25.40
2022-08-05T03:06:55.813Z,25.57
2022-08-05T03:11:54.953Z,25.92
2022-08-05T03:16:51.842Z,25.90
2022-08-05T03:21:58.596Z,25.91
2022-08-05T03:27:02.017Z,25.87
2022-08-05T03:32:06.450Z,25.74
2022-08-05T03:37:13.639Z,25.90
2022-08-05T03:42:18.063Z,25.82
2022-08-05T03:47:21.672Z,25.86
2022-08-05T03:52:49.157Z,25.63
2022-08-05T03:57:57.693Z,25.36
2022-08-05T04:03:02.838Z,24.95
2022-08-05T04:08:14.360Z,25.28
2022-08-05T04:13:21.538Z,25.31
2022-08-05T04:18:25.710Z,25.50
2022-08-05T04:24:04.836Z,25.77
2022-08-05T04:28:57.612Z,25.59
2022-08-05T04:34:31.509Z,25.31
2022-08-05T04:39:28.107Z,25.11
2022-08-05T04:44:32.252Z,24.83
2022-08-05T04:49:38.977Z,23.96
2022-08-05T04:55:05.322Z,25.11
2022-08-05T05:00:18.745Z,24.58
2022-08-05T05:05:29.158Z,25.13
2022-08-05T05:10:41.889Z,25.43
2022-08-05T05:16:02.217Z,25.34
2022-08-05T05:21:09.560Z,25.42
2022-08-05T05:26:14.811Z,25.00
2022-08-05T05:31:18.824Z,24.70
2022-08-05T05:36:22.314Z,24.57
2022-08-05T05:41:40.024Z,24.85
2022-08-05T05:46:44.416Z,23.74
2022-08-05T05:51:56.829Z,25.04
2022-08-05T05:57:01.629Z,24.21
2022-08-05T06:02:06.422Z,24.25
2022-08-05T06:07:11.082Z,23.88
2022-08-05T06:12:19.608Z,23.78
2022-08-05T06:17:52.463Z,24.85
2022-08-05T06:22:46.530Z,24.91
2022-08-05T06:28:12.674Z,24.83
2022-08-05T06:33:19.282Z,24.84
2022-08-05T06:38:36.626Z,24.86
2022-08-05T06:43:59.693Z,24.78
2022-08-05T06:49:07.566Z,24.75
2022-08-05T06:54:12.046Z,25.04
2022-08-05T06:59:23.967Z,24.51
2022-08-05T07:04:27.511Z,25.06
2022-08-05T07:09:32.443Z,24.72
2022-08-05T07:14:59.522Z,24.86
2022-08-05T07:20:32.544Z,25.00
2022-08-05T07:25:55.517Z,24.80
2022-08-05T07:30:55.113Z,24.60
2022-08-05T07:36:04.136Z,24.64
2022-08-05T07:42:07.807Z,24.53
2022-08-05T07:46:50.366Z,24.10
2022-08-05T07:51:55.188Z,24.16
2022-08-05T07:57:02.295Z,23.99
2022-08-05T08:02:31.463Z,24.49
2022-08-05T08:08:00.295Z,22.69
2022-08-05T08:13:04.111Z,24.30
2022-08-05T08:18:14.216Z,24.60
2022-08-05T08:24:01.278Z,24.57
2022-08-05T08:28:59.761Z,24.74
2022-08-05T08:34:07.789Z,24.20
2022-08-05T08:39:15.835Z,25.59
2022-08-05T08:45:16.860Z,24.90
2022-08-05T08:50:13.080Z,24.94
2022-08-05T08:55:13.505Z,24.60
2022-08-05T09:00:23.027Z,25.14
2022-08-05T09:05:38.901Z,25.09
2022-08-05T09:10:52.536Z,25.29
2022-08-05T09:15:56.365Z,23.95
2022-08-05T09:21:01.410Z,24.13
2022-08-05T09:26:10.343Z,25.12
2022-08-05T09:31:43.466Z,25.79
2022-08-05T09:36:55.377Z,25.61
2022-08-05T09:42:07.732Z,24.67
2022-08-05T09:47:15.457Z,26.15
2022-08-05T09:52:26.192Z,26.19
2022-08-05T09:57:59.986Z,25.76
2022-08-05T10:03:10.330Z,25.63
2022-08-05T10:08:36.345Z,25.53
2022-08-05T10:13:47.159Z,25.28
2022-08-05T10:18:51.789Z,26.07
2022-08-05T10:24:00.555Z,25.78
2022-08-05T10:29:04.642Z,24.72
2022-08-05T10:34:09.156Z,24.67
2022-08-05T10:39:25.061Z,25.04
2022-08-05T10:44:45.659Z,24.31
2022-08-05T10:50:32.863Z,24.01
2022-08-05T10:55:27.937Z,23.28
2022-08-05T11:00:31.408Z,23.50
2022-08-05T11:05:35.282Z,23.29
2022-08-05T11:10:50.458Z,23.54
2022-08-05T11:16:22.183Z,23.27
2022-08-05T11:21:48.812Z,23.09
2022-08-05T11:27:49.188Z,24.00
2022-08-05T11:33:34.613Z,24.04
2022-08-05T11:38:54.549Z,24.22
2022-08-05T11:44:05.874Z,24.16
2022-08-05T11:49:19.944Z,24.43
2022-08-05T11:54:33.383Z,24.09
2022-08-05T11:59:49.507Z,24.57
2022-08-05T12:04:59.175Z,24.18
2022-08-05T12:10:09.304Z,23.34
2022-08-05T12:15:20.386Z,24.11
2022-08-05T12:20:40.857Z,23.45
2022-08-05T12:25:53.421Z,23.30
2022-08-05T12:30:57.672Z,23.14
2022-08-05T12:36:08.996Z,24.17
2022-08-05T12:41:14.354Z,23.19
2022-08-05T12:46:29.060Z,23.29
2022-08-05T12:52:14.234Z,24.24
2022-08-05T12:57:10.462Z,24.34
2022-08-05T13:02:21.948Z,24.37
2022-08-05T13:08:00.094Z,23.89
2022-08-05T13:12:58.855Z,23.69
2022-08-05T13:18:02.316Z,24.32
2022-08-05T13:23:07.518Z,24.85
2022-08-05T13:28:11.400Z,24.50
2022-08-05T13:34:22.240Z,25.77
2022-08-05T13:38:43.181Z,23.94
2022-08-05T13:43:54.565Z,25.70
2022-08-05T13:49:00.939Z,25.16
2022-08-05T13:54:12.762Z,25.79
2022-08-05T13:59:20.131Z,24.76
2022-08-05T14:04:42.131Z,24.91
2022-08-05T14:10:01.581Z,26.04
2022-08-05T14:16:08.274Z,25.48
2022-08-05T14:20:30.630Z,25.85
2022-08-05T14:25:35.386Z,25.97
2022-08-05T14:30:51.903Z,26.52
2022-08-05T14:35:56.928Z,25.94
2022-08-05T14:41:06.935Z,26.57
2022-08-05T14:46:10.997Z,26.43
2022-08-05T14:51:15.463Z,26.73
2022-08-05T14:56:22.764Z,26.25
2022-08-05T15:01:48.915Z,27.31
2022-08-05T15:06:50.582Z,27.30
2022-08-05T15:11:56.955Z,26.72
2022-08-05T15:17:01.187Z,27.48
2022-08-05T15:22:04.974Z,27.48
2022-08-05T15:27:10.027Z,27.60
2022-08-05T15:32:13.642Z,28.04
2022-08-05T15:37:22.204Z,28.19
2022-08-05T15:42:57.633Z,28.05
2022-08-05T15:48:04.628Z,28.95
2022-08-05T15:53:09.223Z,28.73
2022-08-05T15:58:17.435Z,28.99
2022-08-05T16:03:21.091Z,27.84
2022-08-05T16:08:24.595Z,28.23
2022-08-05T16:13:35.716Z,27.67
2022-08-05T16:18:52.815Z,28.40
2022-08-05T16:24:00.178Z,26.87
2022-08-05T16:29:07.838Z,27.47
2022-08-05T16:34:11.802Z,28.21
2022-08-05T16:39:15.827Z,28.62
2022-08-05T16:44:21.166Z,28.71
2022-08-05T16:49:29.272Z,27.92
2022-08-05T16:54:33.133Z,28.62
2022-08-05T17:00:02.927Z,28.06
2022-08-05T17:05:01.676Z,27.94
2022-08-05T17:10:05.663Z,27.66
2022-08-05T17:15:15.377Z,26.89
2022-08-05T17:20:19.324Z,26.44
2022-08-05T17:25:39.294Z,27.37
2022-08-05T17:30:51.777Z,26.67
2022-08-05T17:36:08.139Z,26.75
2022-08-05T17:42:16.595Z,25.92
2022-08-05T17:46:38.580Z,25.16
2022-08-05T17:51:44.519Z,26.41
2022-08-05T17:56:51.249Z,24.85
2022-08-05T18:01:56.203Z,25.33
2022-08-05T18:07:01.319Z,25.02
2022-08-05T18:12:06.014Z,24.68
2022-08-05T18:17:59.600Z,25.56
2022-08-05T18:22:54.708Z,25.75
2022-08-05T18:28:01.709Z,24.03
2022-08-05T18:33:09.943Z,24.35
2022-08-05T18:38:19.425Z,23.60
2022-08-05T18:43:31.659Z,24.39
2022-08-05T18:48:42.988Z,24.21
2022-08-05T18:53:50.440Z,24.10
2022-08-05T18:58:54.927Z,24.20
2022-08-05T19:04:06.159Z,24.12
2022-08-05T19:09:15.987Z,23.31
2022-08-05T19:14:52.325Z,24.16
2022-08-05T19:19:47.041Z,23.40
2022-08-05T19:24:54.555Z,23.69
2022-08-05T19:30:02.818Z,23.28
2022-08-05T19:35:08.903Z,23.27
2022-08-05T19:40:12.784Z,23.44
2022-08-05T19:45:18.652Z,23.92
2022-08-05T19:50:23.489Z,21.61
2022-08-05T19:56:13.687Z,23.03
2022-08-05T20:00:52.483Z,22.79
2022-08-05T20:05:57.966Z,22.58
2022-08-05T20:11:01.469Z,23.09
2022-08-05T20:16:06.832Z,23.44
2022-08-05T20:21:11.735Z,22.58
2022-08-05T20:26:17.349Z,23.05
2022-08-05T20:31:28.296Z,22.48
2022-08-05T20:36:43.278Z,22.61
2022-08-05T20:41:48.192Z,22.85
2022-08-05T20:46:51.926Z,23.08
2022-08-05T20:51:57.997Z,21.97
2022-08-05T20:57:01.566Z,22.46
2022-08-05T21:02:06.992Z,23.01
2022-08-05T21:07:11.896Z,22.52
2022-08-05T21:12:19.300Z,22.42
2022-08-05T21:17:25.590Z,22.48
2022-08-05T21:22:33.185Z,22.50
2022-08-05T21:27:38.505Z,22.31
2022-08-05T21:32:42.599Z,22.29
2022-08-05T21:42:59.249Z,21.85
2022-08-05T21:48:06.548Z,21.74
2022-08-05T21:53:17.722Z,21.72
2022-08-05T21:58:24.873Z,21.49
2022-08-05T22:03:52.323Z,21.56
2022-08-05T22:08:58.204Z,21.86
2022-08-05T22:14:34.343Z,21.49
2022-08-05T22:19:57.391Z,21.55
2022-08-05T22:25:21.851Z,20.89
2022-08-05T22:30:34.938Z,20.62
2022-08-05T22:35:49.139Z,20.56
2022-08-05T22:40:54.889Z,20.51
2022-08-05T22:45:58.784Z,20.42
2022-08-05T22:51:06.822Z,20.29
2022-08-05T22:56:12.100Z,20.06
2022-08-05T23:01:17.000Z,19.96
2022-08-05T23:06:26.161Z,19.97
2022-08-05T23:11:31.285Z,19.89
2022-08-05T23:16:52.799Z,19.94
2022-08-05T23:21:57.258Z,19.99
2022-08-05T23:27:03.266Z,19.86
2022-08-05T23:32:07.337Z,19.90
2022-08-05T23:37:14.209Z,19.92
2022-08-05T23:42:23.516Z,19.88
2022-08-05T23:47:33.716Z,19.67
2022-08-05T23:52:50.671Z,19.59
2022-08-05T23:57:55.656Z,19.56
